Time;durP1;ratioP1;P1;durP2;ratioP2;P2;SDS_P1;SDS_P2;PMS_P1;PMS_P2;Temp;Humidity;BMP_temperature;BMP_pressure;BME280_temperature;BME280_humidity;BME280_pressure;Samples;Min_cycle;Max_cycle;Signal;HPM_P1;HPM_P2
2022/05/14 00:00:41;;;;;;;8.60;6.30;;;12.40;99.90;;;;;;2617278;54;20534;-77
2022/05/14 05:00:19;;;;;;;13.10;6.10;;;11.20;99.90;;;;;;2603841;54;21083;-75
2022/05/14 05:05:59;;;;;;;8.40;5.23;;;11.60;99.90;;;;;;2612485;54;20454;-76
2022/05/14 05:08:28;;;;;;;6.57;4.40;;;11.90;99.90;;;;;;2613948;47;20404;-76
2022/05/14 05:10:55;;;;;;;7.47;5.17;;;12.00;99.90;;;;;;2613618;54;20395;-76
2022/05/14 05:13:24;;;;;;;7.83;5.40;;;12.30;99.90;;;;;;2613169;54;20934;-73
2022/05/14 05:15:51;;;;;;;6.03;4.60;;;12.50;99.90;;;;;;2613746;54;20475;-72
2022/05/14 05:18:17;;;;;;;7.07;4.67;;;12.80;99.90;;;;;;2613171;54;20451;-72
2022/05/14 05:20:45;;;;;;;9.20;5.60;;;12.80;99.90;;;;;;2613056;54;20442;-74
2022/05/14 05:23:14;;;;;;;10.93;5.77;;;13.10;99.90;;;;;;2613038;54;20407;-74
2022/05/14 05:25:40;;;;;;;10.60;5.47;;;13.20;99.90;;;;;;2612752;54;20491;-74
2022/05/14 05:28:06;;;;;;;8.07;4.60;;;13.40;99.90;;;;;;2613352;54;20388;-74
2022/05/14 05:30:32;;;;;;;9.40;5.03;;;13.50;99.90;;;;;;2613718;54;20430;-74
2022/05/14 05:32:59;;;;;;;9.90;5.63;;;13.80;99.90;;;;;;2613778;54;20404;-74
2022/05/14 05:35:26;;;;;;;7.20;5.00;;;14.00;99.90;;;;;;2614617;54;21240;-74
2022/05/14 05:37:52;;;;;;;4.93;4.50;;;14.40;99.90;;;;;;2614054;54;20415;-74
2022/05/14 05:40:18;;;;;;;6.93;4.87;;;14.20;99.90;;;;;;2613991;54;20395;-74
2022/05/14 05:42:45;;;;;;;7.97;5.10;;;14.40;99.90;;;;;;2613818;54;20429;-74
2022/05/14 05:45:13;;;;;;;6.87;4.23;;;14.40;99.90;;;;;;2614688;46;20437;-75
2022/05/14 05:47:39;;;;;;;6.23;4.40;;;14.40;99.90;;;;;;2614344;54;20399;-74
2022/05/14 05:50:06;;;;;;;10.57;5.03;;;14.60;99.90;;;;;;2615156;39;20762;-73
2022/05/14 05:52:32;;;;;;;5.43;4.37;;;14.80;99.90;;;;;;2613924;54;20430;-74
2022/05/14 05:57:46;;;;;;;7.03;4.00;;;15.10;99.90;;;;;;2613288;39;20629;-73
2022/05/14 06:00:15;;;;;;;5.70;4.20;;;15.10;99.90;;;;;;2612533;47;20439;-74
2022/05/14 06:02:41;;;;;;;5.23;4.30;;;15.20;99.90;;;;;;2613792;54;20514;-74
2022/05/14 06:05:08;;;;;;;8.83;4.63;;;15.30;99.90;;;;;;2614470;54;20478;-74
2022/05/14 06:07:34;;;;;;;7.63;4.40;;;15.30;99.90;;;;;;2614009;54;20451;-76
2022/05/14 06:10:03;;;;;;;4.93;4.20;;;15.40;99.90;;;;;;2615414;54;20407;-77
2022/05/14 06:12:30;;;;;;;4.73;4.20;;;15.60;95.00;;;;;;2615388;54;20411;-77
2022/05/14 06:14:57;;;;;;;6.50;4.27;;;15.90;87.00;;;;;;2616202;47;20422;-78
2022/05/14 06:17:23;;;;;;;13.33;4.93;;;15.90;79.40;;;;;;2616707;54;20384;-77
2022/05/14 06:19:49;;;;;;;6.00;4.50;;;16.00;75.90;;;;;;2617377;54;20451;-77
2022/05/14 06:22:16;;;;;;;8.77;4.63;;;16.30;71.20;;;;;;2616698;46;20379;-77
2022/05/14 06:24:41;;;;;;;8.27;4.20;;;16.50;67.20;;;;;;2615346;54;20425;-77
2022/05/14 06:27:07;;;;;;;6.80;4.83;;;16.70;65.00;;;;;;2615375;54;20376;-78
2022/05/14 06:29:34;;;;;;;6.60;4.83;;;16.30;62.40;;;;;;2616175;54;20155;-84
2022/05/14 06:32:00;;;;;;;7.97;5.80;;;16.10;65.80;;;;;;2616333;54;21065;-86
2022/05/14 06:34:27;;;;;;;11.97;5.30;;;16.10;68.40;;;;;;2616951;54;20803;-87
2022/05/14 06:36:53;;;;;;;14.20;5.20;;;16.20;64.80;;;;;;2616606;54;20435;-86
2022/05/14 06:39:19;;;;;;;12.67;6.37;;;16.60;60.00;;;;;;2615766;54;20415;-81
2022/05/14 06:41:45;;;;;;;12.43;5.70;;;16.80;56.20;;;;;;2615018;47;20549;-80
2022/05/14 06:44:11;;;;;;;11.00;4.70;;;16.70;55.50;;;;;;2615808;54;20981;-78
2022/05/14 06:46:37;;;;;;;8.73;5.63;;;16.60;58.40;;;;;;2613945;54;20155;-77
2022/05/14 06:49:04;;;;;;;7.30;4.90;;;16.80;56.30;;;;;;2615306;54;20396;-84
2022/05/14 06:51:31;;;;;;;15.23;7.00;;;16.70;57.00;;;;;;2615914;54;20404;-79
2022/05/14 06:54:04;;;;;;;10.47;6.00;;;16.70;58.90;;;;;;2614243;54;20407;-78
2022/05/14 06:56:32;;;;;;;16.50;7.07;;;16.70;57.90;;;;;;2615232;54;20406;-79
2022/05/14 06:59:00;;;;;;;10.80;6.13;;;16.80;59.30;;;;;;2615111;54;20404;-77
2022/05/14 07:01:28;;;;;;;11.00;5.80;;;17.00;57.70;;;;;;2613473;54;20439;-78
2022/05/14 07:06:44;;;;;;;11.57;6.20;;;17.70;52.80;;;;;;2614187;54;20407;-78
2022/05/14 07:09:29;;;;;;;15.37;6.97;;;17.90;48.80;;;;;;2613113;54;20408;-78
2022/05/14 07:12:03;;;;;;;10.97;6.00;;;18.00;43.90;;;;;;2614763;39;20860;-76
2022/05/14 07:14:30;;;;;;;13.67;7.10;;;17.80;45.00;;;;;;2614760;54;20420;-78
2022/05/14 07:16:56;;;;;;;12.50;7.30;;;18.00;46.30;;;;;;2615354;54;20418;-78
2022/05/14 07:19:23;;;;;;;15.20;6.50;;;18.20;44.10;;;;;;2615546;54;20423;-78
2022/05/14 07:21:51;;;;;;;11.07;6.50;;;18.30;43.60;;;;;;2615296;46;20421;-77
2022/05/14 07:24:28;;;;;;;9.50;7.80;;;18.60;43.40;;;;;;2615205;54;20394;-78
2022/05/14 07:26:57;;;;;;;14.33;6.53;;;18.50;39.70;;;;;;2615635;54;20411;-78
2022/05/14 07:29:24;;;;;;;15.27;7.00;;;18.00;42.10;;;;;;2615336;54;20424;-78
2022/05/14 07:31:52;;;;;;;11.30;6.90;;;18.40;41.80;;;;;;2615887;54;20403;-78
2022/05/14 07:34:18;;;;;;;18.50;7.77;;;18.60;44.60;;;;;;2615645;54;20389;-78
2022/05/14 07:36:48;;;;;;;11.23;7.50;;;19.10;40.00;;;;;;2615689;39;21108;-78
2022/05/14 07:39:16;;;;;;;15.03;6.60;;;19.30;35.70;;;;;;2614735;54;20955;-77
2022/05/14 07:41:48;;;;;;;14.77;7.20;;;18.80;35.40;;;;;;2615567;39;20764;-79
2022/05/14 07:44:17;;;;;;;11.27;7.90;;;18.90;39.10;;;;;;2615005;54;20436;-77
2022/05/14 07:46:45;;;;;;;17.30;8.23;;;19.20;36.20;;;;;;2614590;39;20726;-78
2022/05/14 07:49:13;;;;;;;11.57;6.73;;;19.10;38.40;;;;;;2615055;54;20412;-78
2022/05/14 07:51:39;;;;;;;11.37;7.70;;;19.30;38.50;;;;;;2615294;54;20404;-79
2022/05/14 07:54:06;;;;;;;14.33;7.20;;;19.10;36.50;;;;;;2614493;54;20398;-79
2022/05/14 07:56:32;;;;;;;11.70;7.20;;;18.80;38.60;;;;;;2615240;54;20394;-78
2022/05/14 07:58:59;;;;;;;12.67;8.57;;;19.00;38.30;;;;;;2614325;46;20428;-79
2022/05/14 08:01:25;;;;;;;9.47;7.47;;;19.20;38.80;;;;;;2614603;54;20428;-78
2022/05/14 08:03:52;;;;;;;12.80;7.77;;;19.60;34.90;;;;;;2614596;47;20407;-79
2022/05/14 08:06:19;;;;;;;16.40;7.17;;;19.60;36.60;;;;;;2614814;54;20389;-79
2022/05/14 08:08:45;;;;;;;18.10;7.00;;;20.20;33.80;;;;;;2614497;54;20530;-77
2022/05/14 08:11:11;;;;;;;13.13;7.40;;;20.20;33.50;;;;;;2614387;54;20437;-78
2022/05/14 08:13:38;;;;;;;14.27;7.10;;;20.70;30.00;;;;;;2614327;54;20418;-79
2022/05/14 08:16:04;;;;;;;18.90;8.43;;;21.10;25.70;;;;;;2615116;54;20406;-79
2022/05/14 08:18:32;;;;;;;13.43;7.87;;;20.80;23.40;;;;;;2614982;39;21253;-79
2022/05/14 08:24:29;;;;;;;11.47;7.20;;;20.70;22.10;;;;;;2615821;39;20903;-79
2022/05/14 08:26:28;;;;;;;11.47;7.00;;;20.40;16.80;;;;;;2615595;47;20761;-78
2022/05/14 08:28:54;;;;;;;10.50;7.10;;;20.40;18.30;;;;;;2615145;54;20433;-78
2022/05/14 08:31:20;;;;;;;9.90;6.63;;;20.40;19.00;;;;;;2614849;54;20167;-79
2022/05/14 08:33:46;;;;;;;8.43;6.50;;;20.90;16.50;;;;;;2616246;54;20192;-78
2022/05/14 08:36:12;;;;;;;12.37;5.93;;;21.10;13.40;;;;;;2614928;54;20158;-79
2022/05/14 08:38:37;;;;;;;15.80;6.50;;;21.20;12.90;;;;;;2615365;54;20411;-79
2022/05/14 08:41:04;;;;;;;11.33;6.20;;;21.80;9.70;;;;;;2615837;54;20150;-79
2022/05/14 08:43:43;;;;;;;9.97;5.43;;;21.20;10.80;;;;;;2615535;54;20167;-78
2022/05/14 08:46:16;;;;;;;10.60;5.50;;;21.00;12.50;;;;;;2615727;54;20525;-78
2022/05/14 08:48:49;;;;;;;7.53;5.60;;;20.70;12.10;;;;;;2615546;39;20766;-78
2022/05/14 08:51:18;;;;;;;12.13;6.50;;;20.90;13.60;;;;;;2616158;39;20810;-79
2022/05/14 08:53:48;;;;;;;10.63;5.40;;;21.60;9.40;;;;;;2616097;47;20417;-79
2022/05/14 08:56:21;;;;;;;9.83;5.50;;;21.90;8.00;;;;;;2615635;54;20466;-78
2022/05/14 08:59:12;;;;;;;14.53;5.63;;;22.20;6.30;;;;;;2616636;54;20461;-79
2022/05/14 09:01:42;;;;;;;8.47;5.20;;;22.30;5.60;;;;;;2615825;54;20415;-78
2022/05/14 09:04:11;;;;;;;10.73;5.23;;;22.10;5.40;;;;;;2616397;54;20507;-78
2022/05/14 09:06:39;;;;;;;7.70;5.13;;;22.30;5.10;;;;;;2615640;54;20426;-78
2022/05/14 09:09:07;;;;;;;7.00;5.20;;;22.40;4.10;;;;;;2616970;54;20403;-79
2022/05/14 09:11:45;;;;;;;7.27;5.33;;;22.30;2.00;;;;;;2618647;54;20408;-78
2022/05/14 09:14:26;;;;;;;9.60;5.30;;;22.30;1.00;;;;;;2619187;39;20807;-78
2022/05/14 09:17:20;;;;;;;8.10;4.53;;;22.00;4.40;;;;;;2619202;54;20400;-79
2022/05/14 09:19:49;;;;;;;8.73;5.27;;;22.10;2.40;;;;;;2618173;54;20422;-76
2022/05/14 09:22:40;;;;;;;9.10;5.97;;;22.10;2.90;;;;;;2617034;47;20404;-76
2022/05/14 09:25:21;;;;;;;8.67;5.20;;;22.00;2.10;;;;;;2617667;47;20403;-76
2022/05/14 09:28:11;;;;;;;10.60;4.57;;;22.20;3.20;;;;;;2615563;46;20510;-76
2022/05/14 09:30:53;;;;;;;8.30;5.43;;;22.60;2.00;;;;;;2615181;47;20477;-77
2022/05/14 09:33:27;;;;;;;9.80;4.90;;;22.40;2.30;;;;;;2615071;54;20403;-77
2022/05/14 09:35:55;;;;;;;7.90;5.30;;;22.50;2.00;;;;;;2615504;46;20429;-76
2022/05/14 09:38:23;;;;;;;7.83;5.30;;;22.20;1.00;;;;;;2615211;54;20661;-77
2022/05/14 09:40:50;;;;;;;6.20;4.60;;;22.20;2.50;;;;;;2613673;47;21228;-78
2022/05/14 09:43:16;;;;;;;9.40;4.80;;;21.90;2.30;;;;;;2614911;54;20413;-80
2022/05/14 09:45:55;;;;;;;10.13;5.07;;;22.60;1.00;;;;;;2614073;54;20403;-78
2022/05/14 09:48:28;;;;;;;10.50;4.97;;;23.20;1.00;;;;;;2615205;54;20227;-77
2022/05/14 09:51:02;;;;;;;7.67;5.17;;;23.90;1.00;;;;;;2614421;54;20421;-77
2022/05/14 09:53:32;;;;;;;8.60;5.37;;;23.60;1.00;;;;;;2614583;54;20515;-79
2022/05/14 09:56:13;;;;;;;8.13;5.67;;;23.30;1.00;;;;;;2615539;54;20483;-77
2022/05/14 09:58:48;;;;;;;11.93;5.50;;;23.30;1.00;;;;;;2614794;54;20530;-78
2022/05/14 10:01:20;;;;;;;8.30;5.03;;;23.70;1.00;;;;;;2614897;47;20541;-78
2022/05/14 10:04:01;;;;;;;9.23;5.20;;;23.40;1.00;;;;;;2615283;54;20411;-78
2022/05/14 10:06:38;;;;;;;8.50;5.60;;;23.10;1.00;;;;;;2614904;39;20805;-78
2022/05/14 10:09:16;;;;;;;7.17;4.50;;;22.80;1.00;;;;;;2615045;54;20410;-78
2022/05/14 10:11:49;;;;;;;12.67;5.67;;;22.60;1.00;;;;;;2614474;54;20425;-78
2022/05/14 10:14:32;;;;;;;6.57;5.17;;;22.80;1.00;;;;;;2616240;39;20746;-77
2022/05/14 10:17:18;;;;;;;12.17;5.80;;;23.60;1.00;;;;;;2614027;54;20400;-77
2022/05/14 10:20:06;;;;;;;10.43;5.00;;;23.20;1.00;;;;;;2614798;39;20786;-78
2022/05/14 10:28:50;;;;;;;6.47;4.70;;;23.30;1.00;;;;;;2613870;47;21284;-78
2022/05/14 10:31:39;;;;;;;8.03;5.67;;;23.20;1.00;;;;;;2614974;54;20391;-77
2022/05/14 10:34:10;;;;;;;9.40;4.80;;;23.20;1.00;;;;;;2614201;54;20401;-77
2022/05/14 10:36:57;;;;;;;11.37;4.90;;;23.50;1.00;;;;;;2614501;54;20395;-79
2022/05/14 10:40:01;;;;;;;13.60;7.27;;;24.30;1.00;;;;;;2614588;47;20408;-76
2022/05/14 10:42:41;;;;;;;13.40;6.00;;;24.80;1.00;;;;;;2615700;54;21041;-78
2022/05/14 10:45:10;;;;;;;15.83;6.20;;;24.90;1.00;;;;;;2614337;54;20442;-78
2022/05/14 10:47:42;;;;;;;10.83;5.60;;;24.50;1.00;;;;;;2615656;39;20821;-77
2022/05/14 10:50:15;;;;;;;8.63;5.50;;;24.50;1.00;;;;;;2614399;54;20427;-77
2022/05/14 10:52:43;;;;;;;8.93;5.97;;;24.40;1.00;;;;;;2615123;54;20430;-77
2022/05/14 10:55:23;;;;;;;13.07;6.90;;;24.50;1.00;;;;;;2615454;54;20419;-77
2022/05/14 10:57:55;;;;;;;9.53;5.93;;;24.50;1.00;;;;;;2615531;54;20412;-77
2022/05/14 11:00:30;;;;;;;10.50;5.97;;;24.50;1.00;;;;;;2614712;47;20469;-76
2022/05/14 11:03:31;;;;;;;9.40;5.70;;;24.60;1.00;;;;;;2616256;54;20422;-76
2022/05/14 11:06:02;;;;;;;6.93;5.60;;;24.10;1.00;;;;;;2616471;54;20449;-77
2022/05/14 11:08:32;;;;;;;7.77;5.10;;;23.70;1.00;;;;;;2619667;54;20419;-77
2022/05/14 11:11:13;;;;;;;12.67;6.30;;;23.60;1.00;;;;;;2613745;39;20853;-78
2022/05/14 11:13:39;;;;;;;13.13;5.90;;;24.40;1.00;;;;;;2614314;54;20438;-76
2022/05/14 11:16:12;;;;;;;7.53;6.03;;;24.30;1.00;;;;;;2613548;47;20419;-78
2022/05/14 11:18:50;;;;;;;15.53;6.50;;;24.50;1.00;;;;;;2613118;54;20434;-78
2022/05/14 11:21:18;;;;;;;8.40;4.50;;;25.00;1.00;;;;;;2613500;47;20411;-77
2022/05/14 11:23:59;;;;;;;8.13;5.10;;;24.60;1.00;;;;;;2613480;54;20426;-77
2022/05/14 11:26:26;;;;;;;11.07;5.60;;;24.00;1.00;;;;;;2613428;54;20410;-79
2022/05/14 11:29:23;;;;;;;15.40;6.00;;;23.60;1.00;;;;;;2612801;54;21241;-79
2022/05/14 11:31:54;;;;;;;8.13;6.13;;;23.60;1.00;;;;;;2613006;54;20426;-77
2022/05/14 11:34:23;;;;;;;11.00;6.63;;;23.60;1.00;;;;;;2613024;54;20414;-79
2022/05/14 11:36:57;;;;;;;13.20;6.97;;;23.90;1.00;;;;;;2613740;47;20399;-77
2022/05/14 11:39:28;;;;;;;11.93;6.40;;;24.80;1.00;;;;;;2613350;54;20452;-78
2022/05/14 11:42:09;;;;;;;8.97;6.23;;;25.40;1.00;;;;;;2614230;54;20400;-78
2022/05/14 11:44:44;;;;;;;9.23;6.50;;;24.70;1.00;;;;;;2615240;54;20420;-78
2022/05/14 11:47:28;;;;;;;6.70;5.73;;;24.60;1.00;;;;;;2614031;54;20413;-78
2022/05/14 11:49:57;;;;;;;10.00;7.67;;;24.20;1.00;;;;;;2614500;54;20456;-77
2022/05/14 11:52:44;;;;;;;12.33;8.00;;;23.80;1.00;;;;;;2614899;39;20460;-78
2022/05/14 11:55:19;;;;;;;7.37;6.57;;;23.20;1.00;;;;;;2615650;39;20874;-78
2022/05/14 11:58:00;;;;;;;10.80;8.63;;;23.60;1.00;;;;;;2614582;54;20400;-77
2022/05/14 12:00:32;;;;;;;13.13;6.90;;;24.20;1.00;;;;;;2614905;46;20443;-78
2022/05/14 12:03:09;;;;;;;9.67;6.73;;;24.10;1.00;;;;;;2614593;54;20492;-78
2022/05/14 12:05:54;;;;;;;11.60;8.00;;;24.30;1.00;;;;;;2614435;54;20391;-78
2022/05/14 12:08:36;;;;;;;7.57;6.60;;;24.50;1.00;;;;;;2614691;54;20403;-78
2022/05/14 12:11:35;;;;;;;8.77;7.10;;;24.90;1.00;;;;;;2614563;54;20935;-81
2022/05/14 12:14:01;;;;;;;13.47;7.10;;;24.70;1.00;;;;;;2613712;54;20434;-77
2022/05/14 12:16:33;;;;;;;9.10;6.97;;;24.50;1.00;;;;;;2614702;54;20395;-78
2022/05/14 12:19:01;;;;;;;8.77;7.30;;;24.30;1.00;;;;;;2614793;54;20682;-80
2022/05/14 12:21:28;;;;;;;8.00;7.03;;;24.80;1.00;;;;;;2614701;54;20502;-77
2022/05/14 12:23:54;;;;;;;11.03;7.50;;;24.90;1.00;;;;;;2614952;54;20403;-78
2022/05/14 12:26:31;;;;;;;9.33;7.60;;;25.30;1.00;;;;;;2615404;54;20403;-77
2022/05/14 12:29:00;;;;;;;10.20;7.13;;;24.90;1.00;;;;;;2614126;54;20618;-78
2022/05/14 12:34:17;;;;;;;12.33;7.17;;;24.80;1.00;;;;;;2613618;46;20490;-78
2022/05/14 12:36:53;;;;;;;13.17;7.17;;;24.90;1.00;;;;;;2615332;54;20466;-79
2022/05/14 12:39:20;;;;;;;11.43;6.60;;;25.20;1.00;;;;;;2614425;54;20985;-80
2022/05/14 12:41:55;;;;;;;14.10;6.63;;;25.50;1.00;;;;;;2614949;39;20777;-77
2022/05/14 12:44:25;;;;;;;10.77;6.67;;;25.90;1.00;;;;;;2614295;54;20407;-78
2022/05/14 12:46:57;;;;;;;12.53;6.90;;;26.20;1.00;;;;;;2614218;54;20399;-77
2022/05/14 12:49:25;;;;;;;9.40;5.63;;;26.50;1.00;;;;;;2614490;54;20404;-77
2022/05/14 12:51:55;;;;;;;15.97;6.03;;;26.60;1.00;;;;;;2614886;46;20490;-78
2022/05/14 12:54:27;;;;;;;12.80;6.33;;;26.40;1.00;;;;;;2614420;54;20400;-78
2022/05/14 12:56:56;;;;;;;8.27;5.93;;;26.20;1.00;;;;;;2614204;39;21080;-77
2022/05/14 12:59:22;;;;;;;9.47;6.30;;;26.10;1.00;;;;;;2613816;54;20439;-77
2022/05/14 13:01:52;;;;;;;9.13;5.73;;;25.90;1.00;;;;;;2613871;31;20964;-77
2022/05/14 13:04:21;;;;;;;7.80;6.23;;;25.60;1.00;;;;;;2613919;39;20792;-78
2022/05/14 13:06:47;;;;;;;8.67;6.50;;;25.50;1.00;;;;;;2615012;54;20391;-78
2022/05/14 13:09:20;;;;;;;9.70;6.43;;;25.20;1.00;;;;;;2613532;47;20403;-78
2022/05/14 13:11:48;;;;;;;7.93;5.70;;;25.60;1.00;;;;;;2614678;39;20518;-77
2022/05/14 13:14:33;;;;;;;9.03;6.37;;;25.10;1.00;;;;;;2615310;39;20814;-78
2022/05/14 13:17:05;;;;;;;14.87;7.87;;;25.00;1.00;;;;;;2613844;54;20448;-77
2022/05/14 13:19:36;;;;;;;8.03;6.20;;;24.70;1.00;;;;;;2614148;54;20543;-78
2022/05/14 13:22:04;;;;;;;11.77;6.13;;;24.40;1.00;;;;;;2613878;54;20395;-77
2022/05/14 13:24:32;;;;;;;22.33;7.70;;;24.50;1.00;;;;;;2615420;54;20395;-77
2022/05/14 13:27:01;;;;;;;7.73;6.13;;;24.50;1.00;;;;;;2613802;54;20946;-78
2022/05/14 13:29:35;;;;;;;11.90;6.90;;;24.50;1.00;;;;;;2614224;46;20984;-78
2022/05/14 13:32:24;;;;;;;10.33;6.53;;;24.60;1.00;;;;;;2615475;54;20407;-77
2022/05/14 13:37:52;;;;;;;11.77;6.17;;;24.10;1.00;;;;;;2613910;54;20394;-77
2022/05/14 13:40:49;;;;;;;7.77;6.20;;;23.90;1.00;;;;;;2612834;54;20430;-78
2022/05/14 13:43:20;;;;;;;12.07;6.63;;;24.00;1.00;;;;;;2614468;54;20387;-78
2022/05/14 13:45:53;;;;;;;9.67;7.17;;;24.00;1.00;;;;;;2613735;54;20411;-78
2022/05/14 13:48:41;;;;;;;8.97;6.73;;;24.50;1.00;;;;;;2613757;54;20426;-78
2022/05/14 13:51:17;;;;;;;10.97;6.67;;;25.00;1.00;;;;;;2613807;54;20434;-77
2022/05/14 13:53:52;;;;;;;7.67;5.20;;;25.20;1.00;;;;;;2613852;47;20412;-78
2022/05/14 13:56:20;;;;;;;14.13;6.23;;;25.10;1.00;;;;;;2614339;54;20527;-77
2022/05/14 13:59:07;;;;;;;8.00;5.60;;;25.40;1.00;;;;;;2612185;46;20427;-78
2022/05/14 14:01:55;;;;;;;6.27;5.00;;;26.20;1.00;;;;;;2613765;54;20470;-78
2022/05/14 14:04:23;;;;;;;15.20;6.03;;;26.80;1.00;;;;;;2612826;54;20439;-78
2022/05/14 14:06:58;;;;;;;8.90;4.97;;;27.30;1.00;;;;;;2614499;39;20850;-78
2022/05/14 14:09:24;;;;;;;12.00;5.30;;;26.30;1.00;;;;;;2613887;39;20968;-78
2022/05/14 14:11:50;;;;;;;7.10;5.50;;;25.70;1.00;;;;;;2614703;54;20387;-77
2022/05/14 14:14:16;;;;;;;10.27;5.60;;;25.50;1.00;;;;;;2614807;54;20166;-78
2022/05/14 14:16:43;;;;;;;9.47;6.30;;;25.40;1.00;;;;;;2614018;47;20487;-76
2022/05/14 14:19:09;;;;;;;5.73;5.00;;;25.70;1.00;;;;;;2615863;54;20444;-78
2022/05/14 14:21:35;;;;;;;5.73;4.60;;;25.60;1.00;;;;;;2614438;54;20438;-77
2022/05/14 14:24:05;;;;;;;7.10;5.90;;;26.30;1.00;;;;;;2615510;54;20399;-78
2022/05/14 14:26:31;;;;;;;10.27;4.40;;;26.20;1.00;;;;;;2615614;54;20399;-77
2022/05/14 14:28:59;;;;;;;5.57;4.60;;;25.80;1.00;;;;;;2614844;46;20461;-78
2022/05/14 14:31:25;;;;;;;7.97;4.67;;;26.10;1.00;;;;;;2615947;47;20438;-78
2022/05/14 14:33:51;;;;;;;10.63;6.00;;;26.50;1.00;;;;;;2614772;54;20399;-78
2022/05/14 14:36:19;;;;;;;12.63;5.57;;;25.40;1.00;;;;;;2615333;46;20258;-77
2022/05/14 14:38:45;;;;;;;9.80;6.70;;;25.00;1.00;;;;;;2615739;39;20833;-77
2022/05/14 14:41:11;;;;;;;6.83;5.10;;;24.60;1.00;;;;;;2614941;54;20403;-78
2022/05/14 14:43:37;;;;;;;9.53;5.13;;;24.70;1.00;;;;;;2615545;54;20168;-78
2022/05/14 14:46:06;;;;;;;8.23;5.10;;;25.10;1.00;;;;;;2614372;54;20390;-78
2022/05/14 14:48:37;;;;;;;9.40;6.20;;;25.40;1.00;;;;;;2615782;39;20959;-77
2022/05/14 14:51:08;;;;;;;8.03;6.30;;;25.20;1.00;;;;;;2615321;54;20797;-76
2022/05/14 14:53:35;;;;;;;8.43;6.07;;;24.80;1.00;;;;;;2614957;39;21102;-77
2022/05/14 14:56:01;;;;;;;10.30;6.80;;;24.80;1.00;;;;;;2615207;54;20409;-77
2022/05/14 14:58:27;;;;;;;11.13;5.77;;;25.30;1.00;;;;;;2615252;46;20514;-79
2022/05/14 15:00:55;;;;;;;17.30;6.30;;;25.80;1.00;;;;;;2615578;54;20407;-78
2022/05/14 15:03:23;;;;;;;8.43;4.80;;;25.70;1.00;;;;;;2615324;54;20189;-78
2022/05/14 15:05:51;;;;;;;9.37;6.10;;;26.10;1.00;;;;;;2615699;54;20423;-78
2022/05/14 15:08:22;;;;;;;11.13;6.13;;;26.50;1.00;;;;;;2615491;47;20994;-78
2022/05/14 15:10:49;;;;;;;9.63;6.13;;;26.20;1.00;;;;;;2615212;54;20411;-79
2022/05/14 15:13:19;;;;;;;7.70;5.30;;;25.70;1.00;;;;;;2615513;54;20403;-78
2022/05/14 15:15:45;;;;;;;8.07;5.70;;;25.40;1.00;;;;;;2614507;54;20411;-79
2022/05/14 15:18:11;;;;;;;8.87;5.90;;;25.70;1.00;;;;;;2615183;46;20465;-79
2022/05/14 15:20:39;;;;;;;10.40;6.43;;;25.80;1.00;;;;;;2615211;54;20538;-79
2022/05/14 15:23:06;;;;;;;16.13;6.53;;;25.70;1.00;;;;;;2614296;54;20419;-78
2022/05/14 15:25:32;;;;;;;10.97;6.50;;;25.40;1.00;;;;;;2616391;54;20418;-78
2022/05/14 15:27:58;;;;;;;10.83;5.70;;;25.40;1.00;;;;;;2614423;54;20415;-78
2022/05/14 15:30:24;;;;;;;10.97;5.77;;;25.20;1.00;;;;;;2615620;54;20403;-79
2022/05/14 15:32:50;;;;;;;13.70;5.23;;;25.50;1.00;;;;;;2615128;54;20414;-77
2022/05/14 15:35:16;;;;;;;8.30;4.90;;;25.60;1.00;;;;;;2614563;54;20396;-79
2022/05/14 15:37:43;;;;;;;6.43;5.83;;;25.60;1.00;;;;;;2615353;54;20419;-78
2022/05/14 15:40:13;;;;;;;8.53;5.43;;;25.80;1.00;;;;;;2613747;39;20615;-78
2022/05/14 15:42:48;;;;;;;10.90;6.10;;;25.60;1.00;;;;;;2615279;54;20407;-79
2022/05/14 15:45:25;;;;;;;9.07;5.77;;;25.30;1.00;;;;;;2615652;54;20404;-79
2022/05/14 15:47:53;;;;;;;5.50;5.00;;;25.10;1.00;;;;;;2615532;54;20430;-79
2022/05/14 15:50:47;;;;;;;7.70;5.00;;;25.20;1.00;;;;;;2616655;46;20443;-80
2022/05/14 15:53:18;;;;;;;14.60;6.77;;;25.20;1.00;;;;;;2615473;54;20484;-78
2022/05/14 15:55:47;;;;;;;7.70;5.30;;;25.50;1.00;;;;;;2615015;54;20447;-78
2022/05/14 15:58:14;;;;;;;8.63;5.77;;;25.60;1.00;;;;;;2615942;46;20428;-79
2022/05/14 16:00:41;;;;;;;11.60;6.00;;;25.90;1.00;;;;;;2618267;54;20512;-77
2022/05/14 16:03:07;;;;;;;10.60;8.33;;;26.20;1.00;;;;;;2614532;39;20484;-77
2022/05/14 16:05:33;;;;;;;15.10;7.60;;;26.50;1.00;;;;;;2614330;54;21035;-78
2022/05/14 16:08:00;;;;;;;8.17;6.30;;;26.10;1.00;;;;;;2614185;54;20433;-79
2022/05/14 16:16:01;;;;;;;9.80;6.77;;;26.10;1.00;;;;;;2613931;54;20408;-78
2022/05/14 16:18:47;;;;;;;6.33;5.40;;;26.10;1.00;;;;;;2613567;47;20531;-78
2022/05/14 16:21:18;;;;;;;10.03;6.47;;;26.00;1.00;;;;;;2613865;54;20443;-79
2022/05/14 16:23:44;;;;;;;14.30;6.03;;;25.90;1.00;;;;;;2613133;54;20403;-78
2022/05/14 16:26:15;;;;;;;7.03;6.17;;;25.80;1.00;;;;;;2614010;54;20438;-79
2022/05/14 16:28:42;;;;;;;7.97;6.07;;;25.90;1.00;;;;;;2613154;54;20476;-80
2022/05/14 16:31:09;;;;;;;7.17;5.30;;;26.00;1.00;;;;;;2615380;54;20387;-78
2022/05/14 16:33:35;;;;;;;11.20;7.40;;;26.20;1.00;;;;;;2614374;54;20403;-78
2022/05/14 16:36:02;;;;;;;13.23;6.77;;;26.40;1.00;;;;;;2614768;39;20798;-78
2022/05/14 16:38:28;;;;;;;9.97;5.83;;;26.10;1.00;;;;;;2614771;54;20412;-78
2022/05/14 16:40:54;;;;;;;12.00;6.20;;;26.10;1.00;;;;;;2614201;46;20410;-80
2022/05/14 16:43:20;;;;;;;14.43;6.80;;;26.20;1.00;;;;;;2615288;54;20144;-79
2022/05/14 16:45:45;;;;;;;7.90;6.13;;;26.20;1.00;;;;;;2615490;39;20794;-79
2022/05/14 16:48:18;;;;;;;10.33;5.33;;;26.10;1.00;;;;;;2615131;54;20163;-80
2022/05/14 16:50:44;;;;;;;8.63;6.73;;;25.90;1.00;;;;;;2615736;39;20523;-80
2022/05/14 16:53:12;;;;;;;12.00;6.97;;;26.10;1.00;;;;;;2614288;54;20407;-80
2022/05/14 16:55:39;;;;;;;7.53;6.03;;;26.10;1.00;;;;;;2615059;54;20404;-80
2022/05/14 16:58:05;;;;;;;10.57;6.67;;;25.90;1.00;;;;;;2614358;47;20488;-80
2022/05/14 17:00:35;;;;;;;11.63;8.10;;;25.80;1.00;;;;;;2615105;47;20396;-80
2022/05/14 17:03:03;;;;;;;9.20;8.30;;;25.90;1.00;;;;;;2616019;39;21187;-79
2022/05/14 17:05:30;;;;;;;128.30;119.13;;;25.50;1.00;;;;;;2616878;54;20434;-80
2022/05/14 17:07:57;;;;;;;62.83;58.00;;;25.10;1.00;;;;;;2615251;54;20391;-80
2022/05/14 17:10:27;;;;;;;13.80;7.70;;;25.20;1.00;;;;;;2615973;54;20491;-81
2022/05/14 17:12:55;;;;;;;14.20;6.97;;;24.80;1.00;;;;;;2615798;54;20415;-80
2022/05/14 17:15:22;;;;;;;9.10;8.10;;;24.60;1.00;;;;;;2615635;54;20499;-79
2022/05/14 17:17:48;;;;;;;13.30;7.60;;;24.50;1.00;;;;;;2614914;54;20935;-80
2022/05/14 17:20:21;;;;;;;9.10;6.80;;;24.20;1.00;;;;;;2615957;39;21120;-81
2022/05/14 17:22:47;;;;;;;13.90;10.77;;;24.10;1.00;;;;;;2614739;54;20399;-80
2022/05/14 17:25:13;;;;;;;10.07;8.40;;;23.90;1.00;;;;;;2615365;54;20450;-79
2022/05/14 17:27:40;;;;;;;15.67;11.63;;;23.60;1.00;;;;;;2614954;54;20383;-79
2022/05/14 17:30:08;;;;;;;9.87;6.83;;;23.50;1.00;;;;;;2614846;54;20425;-79
2022/05/14 17:32:35;;;;;;;14.20;8.07;;;23.20;1.00;;;;;;2615372;54;20403;-80
2022/05/14 17:35:02;;;;;;;13.63;11.40;;;23.00;1.00;;;;;;2614576;54;20398;-80
2022/05/14 17:40:13;;;;;;;106.07;96.57;;;22.70;1.00;;;;;;2614728;54;20442;-79
2022/05/14 17:42:40;;;;;;;11.87;9.67;;;22.60;1.00;;;;;;2614434;54;20985;-79
2022/05/14 17:45:08;;;;;;;16.77;12.40;;;22.70;1.00;;;;;;2615324;54;20519;-79
2022/05/14 17:47:36;;;;;;;12.50;9.57;;;22.60;1.00;;;;;;2614773;54;20419;-79
2022/05/14 17:50:05;;;;;;;10.00;7.23;;;22.40;1.00;;;;;;2615414;54;20403;-78
2022/05/14 17:52:31;;;;;;;11.80;10.40;;;22.40;1.00;;;;;;2614687;54;20410;-80
2022/05/14 17:54:57;;;;;;;18.27;16.37;;;22.30;1.00;;;;;;2615708;39;20574;-79
2022/05/14 17:57:23;;;;;;;60.00;50.77;;;22.30;1.00;;;;;;2614150;47;20418;-79
2022/05/14 17:59:49;;;;;;;36.50;31.67;;;22.10;1.00;;;;;;2614555;54;20423;-80
2022/05/14 18:02:16;;;;;;;13.70;10.53;;;22.30;1.00;;;;;;2614664;47;20442;-79
2022/05/14 18:04:42;;;;;;;17.90;11.90;;;22.20;1.00;;;;;;2615198;54;20193;-80
2022/05/14 18:07:11;;;;;;;18.00;14.30;;;22.00;1.00;;;;;;2616053;54;20405;-80
2022/05/14 18:09:38;;;;;;;9.90;8.13;;;22.00;1.00;;;;;;2615821;54;21047;-79
2022/05/14 18:12:04;;;;;;;15.33;10.30;;;22.00;1.00;;;;;;2616819;54;20394;-81
2022/05/14 18:14:32;;;;;;;10.77;9.00;;;21.80;1.00;;;;;;2616248;54;20457;-79
2022/05/14 18:17:00;;;;;;;12.87;10.70;;;21.70;1.00;;;;;;2615783;54;20376;-78
2022/05/14 18:19:33;;;;;;;22.57;11.20;;;21.70;1.00;;;;;;2616687;46;20498;-80
2022/05/14 18:22:01;;;;;;;19.53;8.27;;;21.60;1.00;;;;;;2616241;39;20833;-80
2022/05/14 18:24:27;;;;;;;8.47;6.73;;;21.50;1.00;;;;;;2615914;46;20434;-79
2022/05/14 18:26:58;;;;;;;7.63;6.93;;;21.50;1.00;;;;;;2617038;54;20486;-79
2022/05/14 18:29:30;;;;;;;8.97;8.10;;;21.50;1.00;;;;;;2615896;54;20495;-78
2022/05/14 18:31:57;;;;;;;15.03;9.73;;;21.40;1.00;;;;;;2615828;54;21012;-79
2022/05/14 18:34:28;;;;;;;9.30;6.90;;;21.20;1.00;;;;;;2615467;46;20426;-79